SBSN/STM METAR and TAF weather

Enter ICAO airport designator
Station Type Date Time Source
SBSN METAR 2022/10/01 07:00 UTC NOAA

SBSN 010700Z 09009KT CAVOK 28/26 Q1009


Station Type Date Time Source
SBSN Decoded METAR 2022/10/01 07:00 UTC NOAA

Santarem-Aeroporto, Brazil (SBSN) 02-26S 054-43W 72M
Oct 01, 2022 - 03:00 AM EDT / 2022.10.01 0700 UTC
Wind: from the E (090 degrees) at 10 MPH (9 KT):0
Visibility: greater than 7 mile(s):0
Temperature: 82 F (28 C)
Dew Point: 78 F (26 C)
Relative Humidity: 88%
Pressure (altimeter): 29.80 in. Hg (1009 hPa)
ob: SBSN 010700Z 09009KT CAVOK 28/26 Q1009
cycle: 7

Station Type Date Time Source
SBSN TAF 2022/10/01 06:42 UTC NOAA

TAF SBSN 010020Z 0106/0206 17005KT CAVOK TN25/0107Z TX32/0117Z
BECMG 0108/0111 09013KT FEW016
BECMG 0114/0116 10010KT SCT020 FEW025TCU
BECMG 0120/0123 15005KT CAVOK
BECMG 0203/0206 09013KT FEW015
RMK PHN

Example: see airport list